METAR Data
IDs: Format: Raw Decoded Include TAF

Data at: 2018 UTC 25 Sep 2020

KCMY 252015Z AUTO 17016G19KT 10SM CLR 26/16 A2976 RMK AO2 T02550162
KCMY 251955Z AUTO 17014G20KT 10SM CLR 25/16 A2977 RMK AO2 T02500161
KCMY 251935Z AUTO 19008G16KT 10SM CLR 25/16 A2978 RMK AO2 T02520161
KCMY 251915Z AUTO 19013G18KT 10SM CLR 25/16 A2978 RMK AO2 T02530160
KCMY 251855Z AUTO 17011G15KT 10SM CLR 25/16 A2979 RMK AO2 T02520160
KCMY 251835Z AUTO 17015G19KT 10SM CLR 25/16 A2979 RMK AO2 T02470159
KCMY 251815Z AUTO 18012G19KT 10SM CLR 24/16 A2981 RMK AO2 T02440158
KCMY 251755Z AUTO 18013G17KT 10SM CLR 24/16 A2982 RMK AO2 T02420158 10242 20085
KCMY 251735Z AUTO 17012G18KT 10SM CLR 24/16 A2982 RMK AO2 T02400159
KCMY 251715Z AUTO 18012G17KT 10SM CLR 24/16 A2983 RMK AO2 T02350161
KCMY 251655Z AUTO 20007G15KT 170V230 10SM CLR 23/16 A2985 RMK AO2 T02290158
KCMY 251635Z AUTO 18012G19KT 10SM CLR 22/16 A2985 RMK AO2 T02210155
KCMY 251615Z AUTO 17012G17KT 10SM CLR 22/15 A2986 RMK AO2 T02150152
KCMY 251555Z AUTO 17013G18KT 10SM CLR 21/15 A2987 RMK AO2 T02100150
KCMY 251535Z AUTO 19011G16KT 10SM SCT055 20/15 A2987 RMK AO2 T02000146
KCMY 251515Z AUTO 19012G16KT 10SM SCT055 19/14 A2988 RMK AO2 T01940144
KCMY 251455Z AUTO 20010KT 10SM CLR 18/14 A2988 RMK AO2 T01810139
KCMY 251435Z AUTO 19008KT 10SM CLR 17/13 A2987 RMK AO2 T01690131
KCMY 251415Z AUTO 19005KT 10SM SCT043 15/12 A2987 RMK AO2 T01510123
KCMY 251355Z AUTO 22005KT 10SM SCT043 14/12 A2988 RMK AO2 T01400120
KCMY 251335Z AUTO 19006KT 10SM CLR 13/12 A2987 RMK AO2 T01310123
KCMY 251315Z AUTO 18004KT 10SM SCT047 SCT065 12/12 A2987 RMK AO2 T01200120
KCMY 251255Z AUTO 00000KT 10SM SCT045 SCT050 SCT065 10/10 A2988 RMK AO2 T01030103
KCMY 251235Z AUTO 00000KT 10SM SCT045 SCT065 11/11 A2988 RMK AO2 T01070107
KCMY 251215Z AUTO 00000KT 10SM BKN045 BKN065 09/09 A2988 RMK AO2 T00890089
KCMY 251155Z AUTO 00000KT 10SM SCT043 BKN065 09/09 A2988 RMK AO2 70067 T00870087 10095 20073
KCMY 251135Z AUTO 00000KT 10SM BKN043 OVC055 08/08 A2988 RMK AO2 LTG DSNT NW T00830083
KCMY 251115Z AUTO 00000KT 10SM BKN043 OVC055 08/08 A2988 RMK AO2 T00840084
KCMY 251055Z AUTO 00000KT 10SM SCT043 SCT055 08/08 A2988 RMK AO2 T00760076
KCMY 251035Z AUTO 00000KT 10SM CLR 08/08 A2987 RMK AO2 T00750075
KCMY 251015Z AUTO 00000KT 10SM CLR 08/08 A2987 RMK AO2 T00760076
KCMY 250955Z AUTO 00000KT 10SM CLR 08/08 A2987 RMK AO2 T00770077
KCMY 250935Z AUTO 00000KT 4SM BR SCT046 08/08 A2987 RMK AO2 T00830083
KCMY 250915Z AUTO 00000KT 10SM SCT044 09/09 A2987 RMK AO2 T00850085
KCMY 250855Z AUTO 00000KT 10SM BKN044 BKN050 09/09 A2987 RMK AO2 T00860086
KCMY 250835Z AUTO 00000KT 10SM BKN044 OVC050 09/09 A2987 RMK AO2 T00850085
KCMY 250815Z AUTO 00000KT 7SM SCT044 BKN050 09/09 A2987 RMK AO2 T00850085
KCMY 250755Z AUTO 00000KT 3/4SM BR BKN001 BKN044 BKN050 09/09 A2987 RMK AO2 T00850085
KCMY 250735Z AUTO 00000KT 1 3/4SM BR OVC001 09/09 A2987 RMK AO2 T00850085
KCMY 250715Z AUTO 00000KT 3/4SM BR OVC001 09/09 A2987 RMK AO2 T00870087
KCMY 250655Z AUTO 00000KT 1/2SM FG OVC001 09/09 A2987 RMK AO2 T00880088
KCMY 250635Z AUTO 00000KT 1/4SM FG OVC001 09/09 A2987 RMK AO2 T00900090
KCMY 250615Z AUTO 00000KT 1/4SM FG OVC001 09/09 A2988 RMK AO2 T00910091
KCMY 250555Z AUTO 00000KT 3SM BR OVC001 10/10 A2988 RMK AO2 T00950095 10149 20095 401700095
KCMY 250535Z AUTO 00000KT 1/2SM FG OVC001 10/10 A2988 RMK AO2 T01000100
KCMY 250515Z AUTO 00000KT 3/4SM BR OVC001 10/10 A2988 RMK AO2 T00990099
KCMY 250455Z AUTO 00000KT 3/4SM BR OVC001 10/10 A2988 RMK AO2 T00970097
KCMY 250435Z AUTO 00000KT 1/2SM FG OVC001 10/10 A2988 RMK AO2 T00990099
KCMY 250415Z AUTO 00000KT 1/4SM FG OVC001 10/10 A2988 RMK AO2 T01000100
KCMY 250355Z AUTO 00000KT 1/4SM FG OVC001 10/10 A2989 RMK AO2 T01000100
KCMY 250335Z AUTO 00000KT 1/4SM FG OVC001 10/10 A2989 RMK AO2 T01010101
KCMY 250315Z AUTO 00000KT 1/2SM FG OVC001 10/10 A2989 RMK AO2 T01010101
KCMY 250255Z AUTO 00000KT 1/4SM FG OVC001 11/11 A2989 RMK AO2 T01060106
KCMY 250235Z AUTO 00000KT 1/4SM FG OVC001 10/10 A2988 RMK AO2 T01030103
KCMY 250215Z AUTO 00000KT 1/2SM FG OVC001 11/11 A2989 RMK AO2 T01070107
KCMY 250155Z AUTO 00000KT 1/4SM FG OVC001 11/11 A2988 RMK AO2 T01090109
KCMY 250135Z AUTO 00000KT 1/2SM FG VV005 11/11 A2988 RMK AO2 T01100109
KCMY 250115Z AUTO 00000KT 1 3/4SM BR VV007 12/12 A2987 RMK AO2 VIS 1/2V5 T01220122
KCMY 250055Z AUTO 00000KT 7SM CLR 13/13 A2987 RMK AO2 T01250125
KCMY 250035Z AUTO 00000KT 3/4SM BR VV005 13/12 A2987 RMK AO2 T01260124
KCMY 250015Z AUTO 00000KT 7SM CLR 14/14 A2987 RMK AO2 LTG DSNT E T01440142
KCMY 242355Z AUTO 16003KT 10SM CLR 15/15 A2987 RMK AO2 60002 T01500145 10170 20142
KCMY 242335Z AUTO 00000KT 10SM CLR 16/15 A2987 RMK AO2 T01630150
KCMY 242315Z AUTO 00000KT 10SM SCT031 17/15 A2986 RMK AO2 T01680150
KCMY 242255Z AUTO 00000KT 10SM BKN017 BKN022 BKN031 17/15 A2987 RMK AO2 T01700153
KCMY 242235Z AUTO 18003KT 10SM OVC017 17/15 A2987 RMK AO2 T01670153
KCMY 242215Z AUTO 00000KT 10SM BKN017 OVC022 17/15 A2987 RMK AO2 T01660153
KCMY 242155Z AUTO 00000KT 10SM BKN018 OVC023 17/15 A2987 RMK AO2 T01700152
KCMY 242135Z AUTO 00000KT 10SM SCT011 OVC021 17/15 A2987 RMK AO2 T01690150
KCMY 242115Z AUTO 00000KT 10SM SCT011 BKN019 OVC026 17/15 A2987 RMK AO2 T01700150
KCMY 242055Z AUTO 27004KT 10SM BKN013 OVC021 17/15 A2986 RMK AO2 60002 T01670152
KCMY 242035Z AUTO 27003KT 10SM SCT012 OVC022 16/15 A2986 RMK AO2 LTG DSNT S T01630150
KCMY 242015Z AUTO 26003KT 10SM SCT007 BKN011 OVC024 16/15 A2985 RMK AO2 T01580149
KCMY 241955Z AUTO 30003KT 10SM SCT007 BKN012 OVC018 16/15 A2985 RMK AO2 T01570147
KCMY 241935Z AUTO 00000KT 10SM OVC012 15/15 A2985 RMK AO2 LTG DSNT S T01500145
KCMY 241915Z AUTO 00000KT 10SM -RA OVC015 15/14 A2985 RMK AO2 T01470143
KCMY 241855Z AUTO 28005KT 10SM -RA BKN013 OVC021 15/14 A2986 RMK AO2 LTG DSNT SW P0002 T01470143
KCMY 241835Z AUTO 28005KT 10SM -RA BKN013 BKN018 OVC110 15/14 A2985 RMK AO2 P0001 T01450142
KCMY 241815Z AUTO 18003KT 10SM -RA SCT016 SCT027 BKN100 14/14 A2981 RMK AO2 P0001 T01420140
KCMY 241755Z AUTO 11012KT 5SM RA SCT016 BKN026 OVC039 14/14 A2981 RMK AO2 P0053 60065 T01420141 10155 20114
KCMY 241735Z AUTO 10006KT 3SM RA SCT012 BKN033 OVC040 14/14 A2985 RMK AO2 LTG DSNT S P0048 T01430143
KCMY 241715Z AUTO 13005KT 3/4SM +RA BKN006 OVC015 14/14 A2987 RMK AO2 LTG DSNT SW P0034 T01420142
KCMY 241655Z AUTO 00000KT 1 1/2SM +RA SCT017 BKN023 OVC037 14/14 A2989 RMK AO2 VIS 1V2 1/2 LTG DSNT SW P0011 T01430142
KCMY 241635Z AUTO 00000KT 5SM RA SCT030 BKN037 OVC110 15/14 A2989 RMK AO2 T01450142
KCMY 241615Z AUTO 00000KT 10SM SCT037 SCT080 OVC110 15/14 A2989 RMK AO2 LTG DSNT SW AND W T01510143
KCMY 241555Z AUTO 00000KT 10SM TS SCT040 SCT085 OVC110 15/14 A2990 RMK AO2 LTG DSNT SW THRU NW T01520141
KCMY 241535Z AUTO 00000KT 10SM SCT037 BKN085 OVC110 15/14 A2990 RMK AO2 LTG DSNT SW THRU NW T01530141
KCMY 241515Z AUTO 00000KT 10SM SCT032 BKN055 OVC085 15/14 A2990 RMK AO2 LTG DSNT SW THRU NW T01530141
KCMY 241455Z AUTO 00000KT 10SM BKN032 OVC043 15/14 A2989 RMK AO2 LTG DSNT W T01500136
KCMY 241435Z AUTO 00000KT 10SM -DZ SCT032 BKN040 OVC070 15/14 A2990 RMK AO2 LTG DSNT W T01460135
KCMY 241415Z AUTO 17003KT 10SM SCT037 BKN075 OVC110 15/14 A2990 RMK AO2 T01450135
KCMY 241355Z AUTO 00000KT 10SM SCT033 BKN041 OVC120 14/13 A2989 RMK AO2 LTG DSNT W T01400131
KCMY 241335Z AUTO 33003KT 10SM SCT033 SCT039 BKN120 14/13 A2989 RMK AO2 T01350126
KCMY 241315Z AUTO 00000KT 10SM SCT036 SCT050 SCT070 13/12 A2989 RMK AO2 T01290123
KCMY 241255Z AUTO 00000KT 10SM SCT120 12/12 A2990 RMK AO2 T01230120
KCMY 241235Z AUTO 00000KT 10SM SCT110 12/11 A2990 RMK AO2 T01150112
KCMY 241215Z AUTO 00000KT 10SM BKN110 12/11 A2989 RMK AO2 T01150110
KCMY 241155Z AUTO 00000KT 10SM SCT120 12/11 A2988 RMK AO2 T01170112 10120 20101
KCMY 241135Z AUTO 00000KT 10SM SCT120 12/11 A2989 RMK AO2 T01160113
KCMY 241115Z AUTO 00000KT 7SM SCT048 11/11 A2989 RMK AO2 LTG DSNT W T01110107
KCMY 241055Z AUTO 00000KT 10SM SCT038 BKN048 BKN120 11/11 A2989 RMK AO2 T01100106
KCMY 241035Z AUTO 00000KT 10SM SCT048 BKN120 11/11 A2990 RMK AO2 T01100105
KCMY 241015Z AUTO 00000KT 10SM SCT120 11/10 A2990 RMK AO2 T01080104
KCMY 240955Z AUTO 00000KT 10SM CLR 10/10 A2990 RMK AO2 T01040101
KCMY 240935Z AUTO 00000KT 10SM CLR 11/10 A2990 RMK AO2 T01050101
KCMY 240915Z AUTO 00000KT 10SM CLR 10/10 A2990 RMK AO2 T01020100
KCMY 240855Z AUTO 00000KT 10SM CLR 10/10 A2990 RMK AO2 T01040102
KCMY 240835Z AUTO 00000KT 10SM CLR 11/10 A2990 RMK AO2 LTG DSNT NE T01070101